createdAt,value
2019-01-19T00:01:44.014Z,101412.30
2019-01-19T00:04:39.668Z,101409.31
2019-01-19T00:07:47.150Z,101414.52
2019-01-19T00:10:28.659Z,101414.59
2019-01-19T00:12:52.644Z,101408.98
2019-01-19T00:15:03.575Z,101417.66
2019-01-19T00:18:19.858Z,101414.68
2019-01-19T00:20:40.604Z,101416.92
2019-01-19T00:22:56.668Z,101421.67
2019-01-19T00:25:48.623Z,101418.33
2019-01-19T00:28:14.854Z,101430.84
2019-01-19T00:31:09.312Z,101424.85
2019-01-19T00:33:28.941Z,101427.92
2019-01-19T00:36:31.471Z,101430.10
2019-01-19T00:39:30.567Z,101431.05
2019-01-19T00:42:11.041Z,101432.39
2019-01-19T00:44:54.728Z,101431.98
2019-01-19T00:47:52.246Z,101425.96
2019-01-19T00:49:59.671Z,101428.55
2019-01-19T00:52:44.375Z,101426.50
2019-01-19T00:55:59.995Z,101427.36
2019-01-19T00:59:03.368Z,101426.91
2019-01-19T01:01:56.687Z,101436.38
2019-01-19T01:04:22.466Z,101431.23
2019-01-19T01:07:21.747Z,101426.96
2019-01-19T01:10:02.210Z,101427.03
2019-01-19T01:12:51.067Z,101436.52
2019-01-19T01:15:29.819Z,101430.50
2019-01-19T01:17:54.761Z,101436.52
2019-01-19T01:20:24.097Z,101440.39
2019-01-19T01:22:56.484Z,101440.75
2019-01-19T01:26:08.116Z,101448.56
2019-01-19T01:28:42.148Z,101449.44
2019-01-19T01:31:18.605Z,101447.27
2019-01-19T01:34:16.568Z,101445.14
2019-01-19T01:36:40.763Z,101444.75
2019-01-19T01:39:14.194Z,101450.32
2019-01-19T01:41:49.445Z,101449.42
2019-01-19T01:44:49.051Z,101446.70
2019-01-19T01:48:07.890Z,101450.93
2019-01-19T01:50:35.670Z,101452.15
2019-01-19T01:53:37.536Z,101452.47
2019-01-19T01:55:47.758Z,101458.87
2019-01-19T01:58:24.011Z,101458.87
2019-01-19T02:01:07.203Z,101459.33
2019-01-19T02:03:39.760Z,101455.46
2019-01-19T02:06:12.756Z,101451.54
2019-01-19T02:09:09.401Z,101454.45
2019-01-19T02:12:21.459Z,101448.35
2019-01-19T02:15:06.803Z,101449.49
2019-01-19T02:18:05.971Z,101441.53
2019-01-19T02:20:55.140Z,101446.08
2019-01-19T02:23:59.674Z,101446.39
2019-01-19T02:27:23.236Z,101444.17
2019-01-19T02:30:07.603Z,101444.56
2019-01-19T02:32:38.456Z,101444.63
2019-01-19T02:35:26.120Z,101445.17
2019-01-19T02:38:30.691Z,101443.14
2019-01-19T02:41:08.326Z,101440.66
2019-01-19T02:44:14.127Z,101438.13
2019-01-19T02:46:54.517Z,101439.91
2019-01-19T02:49:51.200Z,101439.08
2019-01-19T02:52:42.042Z,101439.44
2019-01-19T02:55:25.485Z,101444.59
2019-01-19T02:58:23.942Z,101450.16
2019-01-19T03:01:16.399Z,101452.82
2019-01-19T03:03:46.344Z,101447.33
2019-01-19T03:06:26.729Z,101446.56
2019-01-19T03:09:08.155Z,101455.19
2019-01-19T03:12:43.795Z,101453.51
2019-01-19T03:15:38.385Z,101457.37
2019-01-19T03:18:43.241Z,101462.92
2019-01-19T03:21:42.317Z,101475.33
2019-01-19T03:24:20.611Z,101471.47
2019-01-19T03:27:01.473Z,101475.77
2019-01-19T03:30:08.785Z,101481.72
2019-01-19T03:33:00.774Z,101477.91
2019-01-19T03:36:12.233Z,101480.91
2019-01-19T03:39:38.605Z,101476.20
2019-01-19T03:42:43.505Z,101478.81
2019-01-19T03:45:29.826Z,101478.81
2019-01-19T03:48:13.654Z,101486.60
2019-01-19T03:50:36.859Z,101483.63
2019-01-19T03:53:37.514Z,101478.86
2019-01-19T03:56:21.637Z,101481.88
2019-01-19T03:58:43.720Z,101481.44
2019-01-19T04:01:13.411Z,101488.33
2019-01-19T04:03:51.621Z,101484.99
2019-01-19T04:06:41.018Z,101485.46
2019-01-19T04:09:25.620Z,101479.91
2019-01-19T04:12:07.626Z,101487.29
2019-01-19T04:15:08.178Z,101486.44
2019-01-19T04:18:09.594Z,101489.48
2019-01-19T04:21:00.375Z,101481.33
2019-01-19T04:22:59.586Z,101483.03
2019-01-19T04:25:44.554Z,101487.80
2019-01-19T04:27:38.017Z,101489.09
2019-01-19T04:29:31.896Z,101486.90
2019-01-19T04:31:25.457Z,101489.06
2019-01-19T04:33:19.097Z,101491.23
2019-01-19T04:35:12.484Z,101493.42
2019-01-19T04:37:05.896Z,101496.88
2019-01-19T04:38:59.603Z,101496.00
2019-01-19T04:40:53.498Z,101499.05
2019-01-19T04:42:47.331Z,101496.90
2019-01-19T04:44:40.899Z,101498.66
2019-01-19T04:46:34.257Z,101498.23
2019-01-19T04:48:27.937Z,101493.08
2019-01-19T04:50:21.930Z,101497.83
2019-01-19T04:52:15.460Z,101500.33
2019-01-19T04:54:08.847Z,101500.28
2019-01-19T04:56:02.517Z,101500.69
2019-01-19T04:57:55.873Z,101502.84
2019-01-19T04:59:49.026Z,101493.76
2019-01-19T05:01:42.545Z,101498.90
2019-01-19T05:03:35.963Z,101495.84
2019-01-19T05:05:29.164Z,101501.03
2019-01-19T05:07:22.563Z,101499.33
2019-01-19T05:09:16.420Z,101502.45
2019-01-19T05:11:11.559Z,101502.52
2019-01-19T05:13:05.520Z,101506.45
2019-01-19T05:14:59.245Z,101508.69
2019-01-19T05:16:53.093Z,101507.08
2019-01-19T05:18:46.931Z,101509.44
2019-01-19T05:20:40.396Z,101507.13
2019-01-19T05:22:34.214Z,101504.52
2019-01-19T05:24:27.663Z,101509.16
2019-01-19T05:26:20.878Z,101505.34
2019-01-19T05:28:14.004Z,101511.04
2019-01-19T05:30:10.677Z,101507.97
2019-01-19T05:32:03.843Z,101511.58
2019-01-19T05:33:57.183Z,101507.87
2019-01-19T05:35:50.458Z,101507.45
2019-01-19T05:37:43.917Z,101512.20
2019-01-19T05:39:39.426Z,101510.18
2019-01-19T05:41:32.769Z,101515.84
2019-01-19T05:43:26.331Z,101515.50
2019-01-19T05:45:28.166Z,101517.44
2019-01-19T05:47:21.919Z,101518.77
2019-01-19T05:49:15.251Z,101518.73
2019-01-19T05:51:08.799Z,101514.39
2019-01-19T05:53:02.726Z,101521.93
2019-01-19T05:54:55.769Z,101509.03
2019-01-19T05:56:50.722Z,101516.59
2019-01-19T05:58:43.915Z,101518.44
2019-01-19T06:00:37.336Z,101520.88
2019-01-19T06:02:30.407Z,101521.54
2019-01-19T06:04:23.761Z,101526.50
2019-01-19T06:06:17.016Z,101518.95
2019-01-19T06:08:10.216Z,101522.63
2019-01-19T06:10:03.505Z,101520.93
2019-01-19T06:11:56.806Z,101520.12
2019-01-19T06:13:50.085Z,101523.85
2019-01-19T06:15:43.385Z,101533.03
2019-01-19T06:17:36.696Z,101524.55
2019-01-19T06:19:30.324Z,101527.72
2019-01-19T06:21:27.637Z,101527.94
2019-01-19T06:23:20.958Z,101528.13
2019-01-19T06:25:15.297Z,101529.63
2019-01-19T06:27:08.558Z,101536.00
2019-01-19T06:29:01.916Z,101532.15
2019-01-19T06:30:55.237Z,101531.73
2019-01-19T06:32:48.775Z,101528.83
2019-01-19T06:34:42.090Z,101531.05
2019-01-19T06:36:35.008Z,101535.21
2019-01-19T06:38:28.031Z,101534.44
2019-01-19T06:40:21.410Z,101544.37
2019-01-19T06:42:14.719Z,101536.90
2019-01-19T06:44:09.625Z,101532.70
2019-01-19T06:46:02.557Z,101542.72
2019-01-19T06:47:55.905Z,101544.56
2019-01-19T06:49:49.039Z,101545.38
2019-01-19T06:51:42.340Z,101544.47
2019-01-19T06:53:35.960Z,101543.17
2019-01-19T06:55:32.978Z,101549.14
2019-01-19T06:57:26.978Z,101552.22
2019-01-19T06:59:20.042Z,101552.18
2019-01-19T07:01:13.329Z,101554.30
2019-01-19T07:03:06.689Z,101552.61
2019-01-19T07:04:59.990Z,101553.91
2019-01-19T07:06:53.533Z,101556.50
2019-01-19T07:08:49.338Z,101559.06
2019-01-19T07:10:42.331Z,101562.05
2019-01-19T07:12:35.368Z,101566.16
2019-01-19T07:14:28.211Z,101560.43
2019-01-19T07:16:21.390Z,101560.92
2019-01-19T07:18:14.061Z,101560.25
2019-01-19T07:20:08.109Z,101576.23
2019-01-19T07:22:01.028Z,101574.31
2019-01-19T07:23:54.254Z,101571.02
2019-01-19T07:25:47.304Z,101576.50
2019-01-19T07:27:41.696Z,101581.97
2019-01-19T07:29:34.798Z,101582.35
2019-01-19T07:31:28.249Z,101584.41
2019-01-19T07:33:21.351Z,101589.37
2019-01-19T07:35:14.741Z,101584.62
2019-01-19T07:37:09.964Z,101591.83
2019-01-19T07:39:02.854Z,101592.69
2019-01-19T07:40:56.696Z,101592.20
2019-01-19T07:42:54.517Z,101598.39
2019-01-19T07:44:47.586Z,101595.55
2019-01-19T07:46:41.808Z,101594.33
2019-01-19T07:48:35.212Z,101594.31
2019-01-19T07:50:28.417Z,101596.34
2019-01-19T07:52:21.368Z,101602.69
2019-01-19T07:54:14.375Z,101610.47
2019-01-19T07:56:07.390Z,101605.44
2019-01-19T07:58:02.168Z,101608.02
2019-01-19T07:59:54.977Z,101615.02
2019-01-19T08:01:48.425Z,101618.48
2019-01-19T08:03:41.572Z,101618.76
2019-01-19T08:05:34.976Z,101622.14
2019-01-19T08:07:28.387Z,101621.95
2019-01-19T08:09:21.487Z,101621.95
2019-01-19T08:11:15.976Z,101622.25
2019-01-19T08:13:09.975Z,101628.83
2019-01-19T08:15:03.338Z,101633.46
2019-01-19T08:16:56.648Z,101635.72
2019-01-19T08:18:50.760Z,101643.32
2019-01-19T08:20:44.517Z,101638.42
2019-01-19T08:22:37.546Z,101641.34
2019-01-19T08:24:30.714Z,101643.24
2019-01-19T08:26:25.725Z,101642.34
2019-01-19T08:28:19.404Z,101650.22
2019-01-19T08:30:24.897Z,101643.17
2019-01-19T08:32:28.441Z,101640.47
2019-01-19T08:34:21.357Z,101647.28
2019-01-19T08:36:14.858Z,101656.33
2019-01-19T08:38:08.140Z,101647.59
2019-01-19T08:40:02.102Z,101644.52
2019-01-19T08:41:55.364Z,101652.23
2019-01-19T08:43:52.403Z,101654.02
2019-01-19T08:45:47.287Z,101656.49
2019-01-19T08:47:40.984Z,101665.69
2019-01-19T08:49:34.221Z,101669.67
2019-01-19T08:51:27.855Z,101673.75
2019-01-19T08:53:21.563Z,101673.38
2019-01-19T08:55:15.127Z,101677.20
2019-01-19T08:57:07.959Z,101681.56
2019-01-19T08:59:01.087Z,101678.56
2019-01-19T09:00:54.497Z,101679.94
2019-01-19T09:02:47.819Z,101683.47
2019-01-19T09:04:40.928Z,101683.63
2019-01-19T09:06:34.907Z,101676.95
2019-01-19T09:08:28.103Z,101683.09
2019-01-19T09:10:21.177Z,101675.20
2019-01-19T09:12:14.705Z,101672.88
2019-01-19T09:14:09.248Z,101675.17
2019-01-19T09:16:17.241Z,101675.61
2019-01-19T09:18:10.577Z,101676.69
2019-01-19T09:20:03.706Z,101679.41
2019-01-19T09:21:57.016Z,101680.02
2019-01-19T09:24:02.756Z,101680.09
2019-01-19T09:25:57.065Z,101673.92
2019-01-19T09:27:50.307Z,101673.63
2019-01-19T09:29:43.687Z,101675.41
2019-01-19T09:31:36.981Z,101683.28
2019-01-19T09:33:30.249Z,101682.69
2019-01-19T09:35:23.157Z,101682.35
2019-01-19T09:37:16.527Z,101685.00
2019-01-19T09:39:12.856Z,101678.78
2019-01-19T09:41:05.867Z,101683.16
2019-01-19T09:42:59.717Z,101673.09
2019-01-19T09:44:53.071Z,101680.78
2019-01-19T09:46:46.411Z,101684.64
2019-01-19T09:48:39.667Z,101678.99
2019-01-19T09:50:32.557Z,101688.26
2019-01-19T09:52:25.967Z,101678.09
2019-01-19T09:54:19.567Z,101679.12
2019-01-19T09:56:15.437Z,101678.38
2019-01-19T09:58:08.796Z,101680.73
2019-01-19T10:00:01.964Z,101674.73
2019-01-19T10:01:55.657Z,101670.73
2019-01-19T10:03:48.747Z,101665.84
2019-01-19T10:05:42.725Z,101666.95
2019-01-19T10:07:36.027Z,101666.36
2019-01-19T10:09:29.244Z,101667.52
2019-01-19T10:11:24.297Z,101656.22
2019-01-19T10:13:17.446Z,101660.02
2019-01-19T10:15:13.018Z,101662.48
2019-01-19T10:17:06.790Z,101654.67
2019-01-19T10:19:00.098Z,101655.08
2019-01-19T10:20:53.317Z,101653.19
2019-01-19T10:22:46.968Z,101655.07
2019-01-19T10:24:40.275Z,101666.28
2019-01-19T10:26:33.470Z,101664.11
2019-01-19T10:28:28.007Z,101662.89
2019-01-19T10:30:24.916Z,101661.92
2019-01-19T10:32:17.727Z,101662.08
2019-01-19T10:34:10.944Z,101659.91
2019-01-19T10:36:04.237Z,101655.94
2019-01-19T10:37:57.508Z,101665.65
2019-01-19T10:39:50.814Z,101659.34
2019-01-19T10:41:44.127Z,101651.87
2019-01-19T10:43:37.497Z,101658.53
2019-01-19T10:45:30.891Z,101662.64
2019-01-19T10:47:24.080Z,101663.17
2019-01-19T10:49:17.187Z,101658.70
2019-01-19T10:51:10.514Z,101662.12
2019-01-19T10:53:03.920Z,101666.40
2019-01-19T10:54:57.291Z,101657.95
2019-01-19T10:56:50.680Z,101657.70
2019-01-19T10:58:44.419Z,101659.73
2019-01-19T11:00:37.707Z,101657.91
2019-01-19T11:02:31.000Z,101653.76
2019-01-19T11:04:24.054Z,101654.16
2019-01-19T11:06:17.337Z,101651.11
2019-01-19T11:08:12.451Z,101652.98
2019-01-19T11:10:06.061Z,101645.69
2019-01-19T11:12:04.049Z,101657.28
2019-01-19T11:13:57.253Z,101646.05
2019-01-19T11:15:50.244Z,101650.50
2019-01-19T11:17:43.698Z,101649.67
2019-01-19T11:19:36.855Z,101649.69
2019-01-19T11:21:31.181Z,101649.62
2019-01-19T11:23:24.528Z,101646.20
2019-01-19T11:25:18.060Z,101647.05
2019-01-19T11:27:11.690Z,101654.97
2019-01-19T11:29:05.059Z,101644.30
2019-01-19T11:30:58.336Z,101645.14
2019-01-19T11:32:52.849Z,101642.64
2019-01-19T11:34:46.257Z,101641.70
2019-01-19T11:36:41.028Z,101640.84
2019-01-19T11:38:34.494Z,101643.16
2019-01-19T11:40:36.325Z,101641.05
2019-01-19T11:42:29.458Z,101640.63
2019-01-19T11:44:22.612Z,101639.84
2019-01-19T11:46:18.421Z,101634.20
2019-01-19T11:48:12.314Z,101641.35
2019-01-19T11:50:05.940Z,101638.70
2019-01-19T11:51:58.883Z,101643.00
2019-01-19T11:53:53.264Z,101642.64
2019-01-19T11:55:47.952Z,101638.91
2019-01-19T11:57:41.487Z,101635.38
2019-01-19T11:59:36.401Z,101638.11
2019-01-19T12:01:29.828Z,101631.64
2019-01-19T12:03:22.930Z,101635.00
2019-01-19T12:05:16.301Z,101640.31
2019-01-19T12:07:09.620Z,101636.73
2019-01-19T12:09:03.109Z,101631.81
2019-01-19T12:10:57.378Z,101629.73
2019-01-19T12:12:50.553Z,101628.34
2019-01-19T12:14:43.557Z,101636.15
2019-01-19T12:16:37.047Z,101628.97
2019-01-19T12:18:30.317Z,101629.43
2019-01-19T12:20:39.147Z,101628.19
2019-01-19T12:22:32.207Z,101626.64
2019-01-19T12:24:26.017Z,101621.47
2019-01-19T12:26:19.225Z,101621.92
2019-01-19T12:28:12.407Z,101630.88
2019-01-19T12:30:06.347Z,101621.53
2019-01-19T12:31:59.805Z,101618.84
2019-01-19T12:33:53.007Z,101615.84
2019-01-19T12:35:46.127Z,101614.67
2019-01-19T12:37:39.355Z,101615.61
2019-01-19T12:39:37.187Z,101614.00
2019-01-19T12:41:30.388Z,101617.26
2019-01-19T12:43:26.565Z,101616.47
2019-01-19T12:45:27.497Z,101617.36
2019-01-19T12:47:21.696Z,101610.38
2019-01-19T12:49:14.893Z,101612.24
2019-01-19T12:51:11.580Z,101611.52
2019-01-19T12:53:04.845Z,101609.05
2019-01-19T12:54:59.677Z,101606.56
2019-01-19T12:56:53.100Z,101610.03
2019-01-19T12:58:46.207Z,101606.62
2019-01-19T13:00:40.937Z,101604.54
2019-01-19T13:02:34.215Z,101610.45
2019-01-19T13:04:27.361Z,101609.87
2019-01-19T13:07:08.487Z,101604.70
2019-01-19T13:09:03.267Z,101606.45
2019-01-19T13:11:40.447Z,101602.67
2019-01-19T13:13:44.927Z,101606.98
2019-01-19T13:16:32.204Z,101606.14
2019-01-19T13:18:58.887Z,101604.02
2019-01-19T13:21:40.116Z,101603.97
2019-01-19T13:24:13.638Z,101603.92
2019-01-19T13:26:46.807Z,101603.49
2019-01-19T13:29:17.527Z,101600.81
2019-01-19T13:32:05.657Z,101611.06
2019-01-19T13:35:01.398Z,101605.77
2019-01-19T13:37:41.837Z,101604.37
2019-01-19T13:40:29.177Z,101600.33
2019-01-19T13:43:27.364Z,101605.43
2019-01-19T13:46:03.497Z,101606.61
2019-01-19T13:49:25.949Z,101601.44
2019-01-19T13:51:46.000Z,101594.16
2019-01-19T13:54:45.790Z,101598.98
2019-01-19T13:57:35.757Z,101593.37
2019-01-19T14:00:07.663Z,101600.26
2019-01-19T14:03:21.676Z,101601.09
2019-01-19T14:06:10.328Z,101601.50
2019-01-19T14:08:49.287Z,101596.69
2019-01-19T14:11:25.383Z,101587.56
2019-01-19T14:14:07.001Z,101587.94
2019-01-19T14:16:42.166Z,101590.05
2019-01-19T14:19:36.506Z,101596.04
2019-01-19T14:22:23.416Z,101594.28
2019-01-19T14:25:12.412Z,101594.69
2019-01-19T14:28:19.246Z,101597.58
2019-01-19T14:31:04.069Z,101598.05
2019-01-19T14:33:50.919Z,101597.17
2019-01-19T14:36:40.758Z,101589.41
2019-01-19T14:39:35.103Z,101592.45
2019-01-19T14:42:17.719Z,101601.16
2019-01-19T14:45:06.576Z,101592.45
2019-01-19T14:47:35.668Z,101600.57
2019-01-19T14:50:24.025Z,101601.38
2019-01-19T14:53:08.466Z,101597.46
2019-01-19T14:56:25.335Z,101596.11
2019-01-19T14:58:55.406Z,101599.87
2019-01-19T15:01:46.764Z,101594.64
2019-01-19T15:04:11.525Z,101601.56
2019-01-19T15:06:53.290Z,101601.92
2019-01-19T15:09:39.145Z,101597.16
2019-01-19T15:12:34.917Z,101598.05
2019-01-19T15:15:25.163Z,101598.02
2019-01-19T15:18:21.295Z,101596.73
2019-01-19T15:21:09.483Z,101600.14
2019-01-19T15:23:41.974Z,101599.69
2019-01-19T15:26:30.605Z,101599.69
2019-01-19T15:29:27.046Z,101601.39
2019-01-19T15:31:52.355Z,101597.96
2019-01-19T15:34:45.965Z,101603.50
2019-01-19T15:37:37.944Z,101598.80
2019-01-19T15:39:59.345Z,101602.27
2019-01-19T15:42:45.617Z,101597.58
2019-01-19T15:45:33.225Z,101599.75
2019-01-19T15:48:19.705Z,101596.28
2019-01-19T15:51:13.005Z,101593.69
2019-01-19T15:53:39.105Z,101589.81
2019-01-19T15:55:54.755Z,101588.52
2019-01-19T15:58:35.935Z,101594.98
2019-01-19T16:01:34.270Z,101588.05
2019-01-19T16:04:25.984Z,101592.87
2019-01-19T16:06:57.905Z,101592.05
2019-01-19T16:09:52.865Z,101589.47
2019-01-19T16:12:46.059Z,101592.05
2019-01-19T16:16:13.747Z,101591.62
2019-01-19T16:19:04.560Z,101593.27
2019-01-19T16:22:15.491Z,101595.33
2019-01-19T16:25:07.973Z,101596.56
2019-01-19T16:28:17.142Z,101597.02
2019-01-19T16:30:48.772Z,101594.39
2019-01-19T16:33:22.682Z,101598.27
2019-01-19T16:35:58.841Z,101591.39
2019-01-19T16:38:33.377Z,101598.27
2019-01-19T16:41:39.963Z,101592.63
2019-01-19T16:44:05.452Z,101592.20
2019-01-19T16:47:01.146Z,101595.16
2019-01-19T16:49:38.678Z,101599.95
2019-01-19T16:52:25.724Z,101600.84
2019-01-19T16:54:55.096Z,101593.91
2019-01-19T16:58:00.191Z,101596.84
2019-01-19T17:00:56.615Z,101603.37
2019-01-19T17:04:02.224Z,101598.97
2019-01-19T17:06:53.355Z,101599.03
2019-01-19T17:09:48.978Z,101608.12
2019-01-19T17:12:35.768Z,101612.34
2019-01-19T17:15:11.725Z,101607.18
2019-01-19T17:17:45.845Z,101608.94
2019-01-19T17:20:39.615Z,101602.48
2019-01-19T17:23:48.443Z,101599.03
2019-01-19T17:26:32.053Z,101604.71
2019-01-19T17:29:05.886Z,101603.44
2019-01-19T17:31:36.115Z,101601.73
2019-01-19T17:33:50.034Z,101600.84
2019-01-19T17:36:35.316Z,101607.70
2019-01-19T17:39:40.134Z,101601.66
2019-01-19T17:42:40.875Z,101602.54
2019-01-19T17:45:30.475Z,101600.72
2019-01-19T17:48:01.211Z,101602.48
2019-01-19T17:50:51.097Z,101605.48
2019-01-19T17:53:14.014Z,101602.42
2019-01-19T17:55:28.162Z,101615.39
2019-01-19T17:58:35.687Z,101612.70
2019-01-19T18:01:22.975Z,101614.87
2019-01-19T18:04:27.515Z,101619.16
2019-01-19T18:06:55.184Z,101617.91
2019-01-19T18:09:47.368Z,101618.33
2019-01-19T18:12:27.963Z,101623.03
2019-01-19T18:15:13.692Z,101619.58
2019-01-19T18:18:23.970Z,101619.04
2019-01-19T18:21:03.265Z,101623.80
2019-01-19T18:23:54.174Z,101618.14
2019-01-19T18:26:26.124Z,101624.67
2019-01-19T18:29:29.182Z,101619.02
2019-01-19T18:32:19.005Z,101616.45
2019-01-19T18:35:11.780Z,101620.84
2019-01-19T18:37:46.426Z,101622.55
2019-01-19T18:40:32.835Z,101613.11
2019-01-19T18:43:16.316Z,101611.82
2019-01-19T18:46:27.603Z,101612.65
2019-01-19T18:49:39.278Z,101616.52
2019-01-19T18:52:31.236Z,101613.51
2019-01-19T18:55:27.585Z,101616.51
2019-01-19T18:58:35.866Z,101613.45
2019-01-19T19:01:20.385Z,101611.34
2019-01-19T19:04:17.295Z,101613.88
2019-01-19T19:06:50.620Z,101622.50
2019-01-19T19:09:27.485Z,101621.69
2019-01-19T19:12:40.885Z,101625.63
2019-01-19T19:15:28.425Z,101622.63
2019-01-19T19:18:32.705Z,101628.16
2019-01-19T19:21:17.362Z,101623.80
2019-01-19T19:24:16.923Z,101624.28
2019-01-19T19:27:15.215Z,101623.03
2019-01-19T19:30:02.791Z,101632.91
2019-01-19T19:32:45.453Z,101632.49
2019-01-19T19:35:43.713Z,101629.49
2019-01-19T19:38:31.663Z,101626.86
2019-01-19T19:41:06.883Z,101624.20
2019-01-19T19:43:46.654Z,101621.55
2019-01-19T19:46:41.858Z,101628.83
2019-01-19T19:49:23.755Z,101626.70
2019-01-19T19:52:05.350Z,101628.41
2019-01-19T19:53:59.052Z,101629.70
2019-01-19T19:55:49.466Z,101628.02
2019-01-19T19:57:43.521Z,101621.55
2019-01-19T19:59:37.605Z,101627.66
2019-01-19T20:01:31.809Z,101625.90
2019-01-19T20:03:25.675Z,101625.95
2019-01-19T20:05:19.972Z,101623.80
2019-01-19T20:07:14.916Z,101626.45
2019-01-19T20:09:12.066Z,101623.86
2019-01-19T20:11:05.875Z,101619.11
2019-01-19T20:13:00.652Z,101629.91
2019-01-19T20:14:55.135Z,101624.73
2019-01-19T20:16:49.246Z,101621.28
2019-01-19T20:18:43.075Z,101620.86
2019-01-19T20:20:37.465Z,101618.28
2019-01-19T20:22:31.663Z,101619.58
2019-01-19T20:24:25.491Z,101621.69
2019-01-19T20:26:20.127Z,101622.48
2019-01-19T20:28:14.143Z,101620.27
2019-01-19T20:30:11.038Z,101621.97
2019-01-19T20:32:06.357Z,101620.27
2019-01-19T20:34:00.471Z,101621.62
2019-01-19T20:35:55.048Z,101615.15
2019-01-19T20:37:48.951Z,101622.02
2019-01-19T20:39:43.288Z,101622.42
2019-01-19T20:41:37.534Z,101622.42
2019-01-19T20:43:31.789Z,101624.54
2019-01-19T20:45:25.993Z,101622.37
2019-01-19T20:47:20.411Z,101623.64
2019-01-19T20:49:14.311Z,101624.47
2019-01-19T20:51:08.447Z,101625.28
2019-01-19T20:53:03.592Z,101617.53
2019-01-19T20:54:57.559Z,101615.03
2019-01-19T20:56:51.848Z,101618.48
2019-01-19T20:58:45.480Z,101614.50
2019-01-19T21:00:39.244Z,101616.65
2019-01-19T21:02:34.114Z,101618.75
2019-01-19T21:04:27.988Z,101617.46
2019-01-19T21:06:22.247Z,101613.07
2019-01-19T21:08:16.423Z,101608.31
2019-01-19T21:10:10.489Z,101613.48
2019-01-19T21:12:04.604Z,101608.78
2019-01-19T21:13:58.741Z,101609.71
2019-01-19T21:15:52.991Z,101607.67
2019-01-19T21:17:46.918Z,101606.85
2019-01-19T21:19:40.881Z,101606.75
2019-01-19T21:21:34.882Z,101607.14
2019-01-19T21:23:28.711Z,101604.56
2019-01-19T21:25:23.639Z,101603.69
2019-01-19T21:27:18.390Z,101604.56
2019-01-19T21:29:12.488Z,101605.78
2019-01-19T21:31:06.592Z,101604.82
2019-01-19T21:33:00.570Z,101604.36
2019-01-19T21:34:53.932Z,101602.12
2019-01-19T21:36:47.539Z,101595.61
2019-01-19T21:38:41.588Z,101596.41
2019-01-19T21:40:39.178Z,101601.92
2019-01-19T21:42:31.111Z,101599.74
2019-01-19T21:44:24.850Z,101603.56
2019-01-19T21:46:19.444Z,101599.69
2019-01-19T21:48:12.812Z,101598.03
2019-01-19T21:50:09.008Z,101598.45
2019-01-19T21:52:02.521Z,101601.10
2019-01-19T21:53:56.080Z,101599.41
2019-01-19T21:55:49.113Z,101598.20
2019-01-19T21:57:42.441Z,101599.55
2019-01-19T21:59:37.561Z,101593.56
2019-01-19T22:01:30.890Z,101596.61
2019-01-19T22:03:25.751Z,101591.45
2019-01-19T22:05:19.629Z,101593.22
2019-01-19T22:07:12.452Z,101587.56
2019-01-19T22:09:07.179Z,101592.75
2019-01-19T22:11:00.352Z,101599.66
2019-01-19T22:12:53.832Z,101590.98
2019-01-19T22:14:46.991Z,101592.66
2019-01-19T22:16:40.333Z,101597.37
2019-01-19T22:18:34.191Z,101592.20
2019-01-19T22:20:27.097Z,101592.20
2019-01-19T22:22:20.475Z,101590.30
2019-01-19T22:24:15.401Z,101587.24
2019-01-19T22:26:10.726Z,101587.19
2019-01-19T22:28:04.301Z,101581.19
2019-01-19T22:29:57.611Z,101579.42
2019-01-19T22:31:50.711Z,101575.14
2019-01-19T22:33:44.036Z,101578.15
2019-01-19T22:35:37.460Z,101575.62
2019-01-19T22:37:31.590Z,101569.64
2019-01-19T22:39:24.879Z,101577.46
2019-01-19T22:41:20.758Z,101573.59
2019-01-19T22:43:22.011Z,101568.89
2019-01-19T22:45:16.932Z,101565.84
2019-01-19T22:47:10.361Z,101572.71
2019-01-19T22:49:04.204Z,101570.58
2019-01-19T22:50:59.321Z,101570.58
2019-01-19T22:52:54.001Z,101568.84
2019-01-19T22:54:47.372Z,101576.63
2019-01-19T22:56:40.661Z,101568.06
2019-01-19T22:58:34.153Z,101565.02
2019-01-19T23:01:02.527Z,101567.64
2019-01-19T23:02:55.881Z,101560.31
2019-01-19T23:04:49.048Z,101558.95
2019-01-19T23:06:43.711Z,101561.02
2019-01-19T23:08:36.714Z,101561.88
2019-01-19T23:10:29.913Z,101559.30
2019-01-19T23:12:23.271Z,101556.19
2019-01-19T23:14:18.281Z,101555.29
2019-01-19T23:16:11.742Z,101550.47
2019-01-19T23:18:05.261Z,101555.99
2019-01-19T23:19:58.312Z,101547.77
2019-01-19T23:21:51.644Z,101546.41
2019-01-19T23:23:44.799Z,101547.14
2019-01-19T23:25:39.128Z,101554.81
2019-01-19T23:27:33.616Z,101544.42
2019-01-19T23:29:27.361Z,101544.32
2019-01-19T23:31:20.411Z,101552.99
2019-01-19T23:33:13.801Z,101549.06
2019-01-19T23:35:09.296Z,101552.16
2019-01-19T23:37:03.932Z,101550.88
2019-01-19T23:38:58.535Z,101546.14
2019-01-19T23:40:51.902Z,101547.41
2019-01-19T23:42:47.305Z,101545.27
2019-01-19T23:44:41.165Z,101545.72
2019-01-19T23:46:34.405Z,101543.13
2019-01-19T23:48:27.545Z,101541.30
2019-01-19T23:50:20.766Z,101542.13
2019-01-19T23:52:14.116Z,101544.71
2019-01-19T23:54:07.016Z,101547.34
2019-01-19T23:56:00.597Z,101546.95
2019-01-19T23:57:53.757Z,101545.66
2019-01-19T23:59:47.143Z,101540.62
